Time;durP1;ratioP1;P1;durP2;ratioP2;P2;SDS_P1;SDS_P2;PMS_P1;PMS_P2;Temp;Humidity;BMP_temperature;BMP_pressure;BME280_temperature;BME280_humidity;BME280_pressure;Samples;Min_cycle;Max_cycle;Signal;HPM_P1;HPM_P2
2022/06/27 00:02:24;;;;;;;10.48;8.25;;;17.50;99.90;;;;;;4952756;29;20171;-67
2022/06/27 00:04:51;;;;;;;10.20;7.95;;;17.40;99.90;;;;;;4963067;28;20057;-67
2022/06/27 00:07:17;;;;;;;10.40;8.10;;;17.40;99.90;;;;;;4957535;28;20133;-67
2022/06/27 00:09:43;;;;;;;9.25;7.75;;;17.40;99.90;;;;;;4999089;23;20588;-65
2022/06/27 00:12:09;;;;;;;9.07;7.55;;;17.40;99.90;;;;;;4981450;28;20074;-65
2022/06/27 00:14:36;;;;;;;10.57;8.13;;;17.40;99.90;;;;;;4963024;28;20078;-65
2022/06/27 00:17:03;;;;;;;11.25;8.15;;;17.40;99.90;;;;;;4987655;28;20061;-65
2022/06/27 00:19:28;;;;;;;11.50;7.85;;;17.40;99.90;;;;;;4975034;28;20038;-65
2022/06/27 00:21:55;;;;;;;10.85;8.73;;;17.30;99.90;;;;;;4954127;28;20039;-65
2022/06/27 00:24:20;;;;;;;11.45;8.75;;;17.40;99.90;;;;;;4969334;28;20063;-65
2022/06/27 00:26:46;;;;;;;9.20;8.30;;;17.30;99.90;;;;;;4953557;28;20073;-65
2022/06/27 00:29:11;;;;;;;12.55;8.77;;;17.30;99.90;;;;;;4972818;28;20051;-65
2022/06/27 00:31:37;;;;;;;10.88;8.68;;;17.30;99.90;;;;;;4971875;28;20195;-65
2022/06/27 00:34:03;;;;;;;12.13;8.68;;;17.30;99.90;;;;;;4971782;28;20038;-65
2022/06/27 00:36:29;;;;;;;11.45;8.60;;;17.30;99.90;;;;;;4976141;28;20528;-65
2022/06/27 00:38:54;;;;;;;11.27;8.32;;;17.30;99.90;;;;;;4972643;28;20070;-65
2022/06/27 00:41:20;;;;;;;12.00;8.73;;;17.40;99.90;;;;;;4990560;28;20108;-65
2022/06/27 00:43:46;;;;;;;9.70;7.72;;;17.40;99.90;;;;;;4984910;28;20034;-65
2022/06/27 00:46:12;;;;;;;9.23;7.82;;;17.40;99.90;;;;;;4978068;28;20035;-65
2022/06/27 00:48:38;;;;;;;10.13;7.90;;;17.50;99.90;;;;;;4973400;28;20039;-65
2022/06/27 00:51:05;;;;;;;9.35;8.27;;;17.50;99.90;;;;;;4938106;28;20077;-65
2022/06/27 00:53:32;;;;;;;12.55;8.45;;;17.40;99.90;;;;;;4984122;28;20049;-65
2022/06/27 00:55:59;;;;;;;10.48;8.23;;;17.40;99.90;;;;;;4977994;28;20102;-65
2022/06/27 00:58:24;;;;;;;9.68;8.68;;;17.40;99.90;;;;;;4971148;28;20035;-65
2022/06/27 01:00:50;;;;;;;12.07;8.40;;;17.40;99.90;;;;;;4970222;28;20045;-65
2022/06/27 01:03:16;;;;;;;10.93;8.52;;;17.40;99.90;;;;;;4983802;28;20041;-65
2022/06/27 01:05:51;;;;;;;11.07;8.65;;;17.40;99.90;;;;;;4955158;28;20051;-65
2022/06/27 01:08:22;;;;;;;10.45;8.93;;;17.40;99.90;;;;;;4971241;28;20043;-65
2022/06/27 01:10:48;;;;;;;11.93;9.60;;;17.40;99.90;;;;;;4970763;28;20089;-65
2022/06/27 01:13:15;;;;;;;10.77;9.07;;;17.40;99.90;;;;;;4971523;28;20106;-65
2022/06/27 01:15:42;;;;;;;10.30;9.00;;;17.30;99.90;;;;;;4954532;28;20047;-65
2022/06/27 01:18:09;;;;;;;12.05;8.88;;;17.30;99.90;;;;;;4972026;28;20069;-65
2022/06/27 01:20:35;;;;;;;12.48;9.18;;;17.40;99.90;;;;;;4973589;28;20034;-65
2022/06/27 01:23:01;;;;;;;12.20;9.32;;;17.40;99.90;;;;;;4974190;28;20038;-65
2022/06/27 01:25:27;;;;;;;11.00;8.95;;;17.40;99.90;;;;;;4974201;28;20034;-65
2022/06/27 01:27:53;;;;;;;14.10;8.70;;;17.40;99.90;;;;;;4976666;28;20514;-65
2022/06/27 01:30:19;;;;;;;11.23;9.02;;;17.40;99.90;;;;;;4977257;28;20035;-66
2022/06/27 01:32:45;;;;;;;10.40;8.93;;;17.40;99.90;;;;;;4974412;28;20058;-65
2022/06/27 01:35:11;;;;;;;11.45;8.45;;;17.40;99.90;;;;;;4974843;28;20538;-65
2022/06/27 01:37:37;;;;;;;12.90;9.13;;;17.40;99.90;;;;;;4973546;28;20117;-65
2022/06/27 01:40:03;;;;;;;11.82;8.77;;;17.40;99.90;;;;;;4983873;28;20097;-65
2022/06/27 01:42:29;;;;;;;11.98;9.10;;;17.40;99.90;;;;;;4984415;28;20113;-65
2022/06/27 01:44:54;;;;;;;17.02;9.73;;;17.40;99.90;;;;;;4973080;28;20130;-65
2022/06/27 01:47:20;;;;;;;13.05;9.30;;;17.30;99.90;;;;;;4973799;28;20078;-65
2022/06/27 01:49:46;;;;;;;15.38;10.35;;;17.30;99.90;;;;;;4973946;28;20079;-65
2022/06/27 01:52:14;;;;;;;12.98;10.45;;;17.30;99.90;;;;;;4983515;28;20121;-65
2022/06/27 01:54:40;;;;;;;14.02;9.65;;;17.20;99.90;;;;;;4957922;28;20066;-65
2022/06/27 01:57:08;;;;;;;12.13;9.50;;;17.20;99.90;;;;;;4956342;28;20043;-65
2022/06/27 01:59:34;;;;;;;18.67;9.80;;;17.20;99.90;;;;;;4972332;28;20081;-65
2022/06/27 02:02:02;;;;;;;11.95;9.70;;;17.20;99.90;;;;;;4977237;28;20039;-65
2022/06/27 02:04:29;;;;;;;12.48;9.90;;;17.20;99.90;;;;;;4973404;28;20034;-65
2022/06/27 02:06:57;;;;;;;12.95;9.77;;;17.20;99.90;;;;;;4956255;28;20593;-65
2022/06/27 02:09:23;;;;;;;13.30;9.68;;;17.20;99.90;;;;;;4972479;28;20049;-65
2022/06/27 02:11:51;;;;;;;12.98;10.68;;;17.20;99.90;;;;;;4974153;28;20043;-65
2022/06/27 02:14:18;;;;;;;12.50;10.88;;;17.20;99.90;;;;;;4974816;28;20407;-65
2022/06/27 02:16:44;;;;;;;15.68;10.35;;;17.10;99.90;;;;;;4978691;28;20053;-65
2022/06/27 02:19:15;;;;;;;11.52;10.32;;;17.20;99.90;;;;;;4956449;28;20442;-65
2022/06/27 02:21:41;;;;;;;14.70;10.07;;;17.20;99.90;;;;;;4973461;28;20043;-65
2022/06/27 02:24:08;;;;;;;12.50;10.02;;;17.20;99.90;;;;;;4972641;28;20046;-65
2022/06/27 02:26:33;;;;;;;13.35;10.23;;;17.20;99.90;;;;;;4974665;28;20125;-65
2022/06/27 02:29:00;;;;;;;13.85;10.40;;;17.20;99.90;;;;;;4973118;28;20126;-65
2022/06/27 02:31:28;;;;;;;13.20;9.48;;;17.10;99.90;;;;;;4974108;28;20043;-65
2022/06/27 02:33:55;;;;;;;10.13;9.13;;;17.10;99.90;;;;;;4974304;28;20043;-65
2022/06/27 02:36:32;;;;;;;12.48;9.50;;;17.20;99.90;;;;;;4974849;28;20046;-65
2022/06/27 02:38:59;;;;;;;11.93;9.80;;;17.20;99.90;;;;;;4977249;28;20113;-65
2022/06/27 02:41:27;;;;;;;15.43;10.68;;;17.10;99.90;;;;;;4980398;28;20046;-68
2022/06/27 02:43:59;;;;;;;13.02;10.80;;;17.10;99.90;;;;;;4955920;28;20130;-67
2022/06/27 02:46:25;;;;;;;14.35;10.43;;;17.00;99.90;;;;;;4979347;28;20116;-67
2022/06/27 02:48:50;;;;;;;16.15;10.70;;;17.00;99.90;;;;;;4971827;28;20046;-67
2022/06/27 02:51:24;;;;;;;15.57;11.18;;;17.00;99.90;;;;;;4973825;28;20156;-67
2022/06/27 02:54:09;;;;;;;14.38;10.52;;;16.90;99.90;;;;;;4973709;28;20133;-67
2022/06/27 02:56:42;;;;;;;14.35;11.35;;;16.90;99.90;;;;;;4954011;28;20101;-67
2022/06/27 02:59:18;;;;;;;13.85;10.93;;;16.90;99.90;;;;;;4970480;28;20035;-67
2022/06/27 03:01:48;;;;;;;17.00;11.70;;;16.80;99.90;;;;;;4955550;28;20121;-67
2022/06/27 03:04:13;;;;;;;15.77;12.27;;;16.80;99.90;;;;;;4973748;28;20038;-67
2022/06/27 03:06:39;;;;;;;18.33;13.57;;;16.80;99.90;;;;;;4973374;28;20450;-67
2022/06/27 03:09:05;;;;;;;17.95;13.63;;;16.80;99.90;;;;;;4970594;28;20035;-67
2022/06/27 03:11:31;;;;;;;20.58;15.10;;;16.80;99.90;;;;;;4972403;28;20062;-67
2022/06/27 03:13:57;;;;;;;19.42;16.17;;;16.80;99.90;;;;;;4971912;28;20451;-67
2022/06/27 03:16:23;;;;;;;21.45;16.23;;;16.80;99.90;;;;;;4979928;28;20067;-67
2022/06/27 03:18:50;;;;;;;22.75;18.17;;;16.80;99.90;;;;;;4973694;28;20034;-67
2022/06/27 03:21:17;;;;;;;21.50;17.20;;;16.80;99.90;;;;;;4955979;28;20125;-67
2022/06/27 03:23:52;;;;;;;22.05;16.05;;;16.80;99.90;;;;;;4971644;28;20070;-67
2022/06/27 03:26:18;;;;;;;20.88;14.25;;;16.80;99.90;;;;;;4977873;28;20057;-67
2022/06/27 03:28:45;;;;;;;16.23;12.90;;;16.80;99.90;;;;;;4972903;28;20121;-67
2022/06/27 03:31:11;;;;;;;19.10;13.15;;;16.70;99.90;;;;;;4954011;28;20046;-67
2022/06/27 03:33:38;;;;;;;14.77;13.00;;;16.70;99.90;;;;;;4979201;28;20038;-67
2022/06/27 03:36:04;;;;;;;15.43;11.82;;;16.70;99.90;;;;;;4972550;28;20443;-67
2022/06/27 03:38:30;;;;;;;16.42;11.77;;;16.70;99.90;;;;;;4972654;28;20109;-67
2022/06/27 03:40:57;;;;;;;16.60;11.52;;;16.70;99.90;;;;;;5001335;28;20038;-67
2022/06/27 03:43:22;;;;;;;12.85;10.13;;;16.70;99.90;;;;;;4983662;28;20073;-67
2022/06/27 03:45:48;;;;;;;13.43;10.20;;;16.70;99.90;;;;;;4939449;28;20094;-67
2022/06/27 03:50:00;;;;;;;10.57;9.20;;;16.60;99.90;;;;;;4976557;28;20038;-67
2022/06/27 03:51:00;;;;;;;12.10;8.55;;;16.60;99.90;;;;;;4972373;28;20113;-66
2022/06/27 03:53:26;;;;;;;12.07;8.40;;;16.60;99.90;;;;;;4972682;28;20801;-66
2022/06/27 03:55:51;;;;;;;12.02;9.23;;;16.50;99.90;;;;;;4972841;28;20049;-66
2022/06/27 03:58:17;;;;;;;13.05;8.95;;;16.40;99.90;;;;;;4973667;28;20031;-66
2022/06/27 04:00:43;;;;;;;13.02;9.73;;;16.50;99.90;;;;;;4971739;28;20050;-66
2022/06/27 04:03:09;;;;;;;11.88;9.07;;;16.40;99.90;;;;;;4972666;28;20035;-66
2022/06/27 04:05:34;;;;;;;13.80;9.50;;;16.40;99.90;;;;;;4969658;28;20105;-66
2022/06/27 04:08:00;;;;;;;12.85;9.50;;;16.40;99.90;;;;;;4972043;28;20121;-66
2022/06/27 04:10:26;;;;;;;11.13;9.55;;;16.40;99.90;;;;;;4972070;28;20090;-66
2022/06/27 04:12:52;;;;;;;13.50;9.15;;;16.30;99.90;;;;;;4974512;28;20054;-66
2022/06/27 04:15:17;;;;;;;13.65;8.88;;;16.30;99.90;;;;;;4958783;28;20046;-66
2022/06/27 04:17:43;;;;;;;12.63;9.07;;;16.30;99.90;;;;;;4970234;28;20049;-66
2022/06/27 04:20:09;;;;;;;11.85;8.95;;;16.30;99.90;;;;;;4971714;28;20066;-66
2022/06/27 04:22:35;;;;;;;10.02;8.02;;;16.30;99.90;;;;;;4967937;28;20124;-66
2022/06/27 04:25:01;;;;;;;13.18;8.63;;;16.30;99.90;;;;;;4972015;28;20066;-66
2022/06/27 04:27:27;;;;;;;17.10;9.32;;;16.30;99.90;;;;;;4969456;28;20063;-66
2022/06/27 04:29:53;;;;;;;10.85;9.02;;;16.30;99.90;;;;;;4961633;28;20468;-66
2022/06/27 04:32:21;;;;;;;9.82;8.75;;;16.30;99.90;;;;;;4971971;28;20038;-66
2022/06/27 04:34:48;;;;;;;14.10;9.48;;;16.30;99.90;;;;;;4971580;28;20574;-66
2022/06/27 04:37:14;;;;;;;14.75;10.25;;;16.40;99.90;;;;;;4970035;28;20058;-66
2022/06/27 04:39:40;;;;;;;12.98;9.07;;;16.30;99.90;;;;;;4974432;28;20146;-66
2022/06/27 04:42:07;;;;;;;11.40;8.65;;;16.30;99.90;;;;;;4969214;28;20110;-66
2022/06/27 04:44:37;;;;;;;10.80;8.82;;;16.30;99.90;;;;;;4971635;28;20093;-66
2022/06/27 04:47:08;;;;;;;14.40;8.50;;;16.30;99.90;;;;;;4952986;28;20078;-66
2022/06/27 04:49:37;;;;;;;9.88;8.27;;;16.20;99.90;;;;;;4971545;28;20399;-66
2022/06/27 04:52:06;;;;;;;11.30;8.20;;;16.20;99.90;;;;;;4975532;28;20479;-66
2022/06/27 04:54:33;;;;;;;11.38;7.78;;;16.20;99.90;;;;;;4974045;28;20027;-66
2022/06/27 04:56:58;;;;;;;9.52;7.40;;;16.20;99.90;;;;;;4957798;28;20089;-66
2022/06/27 04:59:24;;;;;;;9.18;7.20;;;16.20;99.90;;;;;;4975038;28;20038;-66
2022/06/27 05:01:50;;;;;;;8.68;6.72;;;16.20;99.90;;;;;;4975229;28;20046;-66
2022/06/27 05:04:18;;;;;;;9.00;7.63;;;16.30;99.90;;;;;;4957993;28;20745;-66
2022/06/27 05:06:45;;;;;;;9.32;7.80;;;16.30;99.90;;;;;;4978877;28;20043;-66
2022/06/27 05:09:10;;;;;;;9.30;7.18;;;16.40;99.90;;;;;;4977571;28;20125;-66
2022/06/27 05:11:36;;;;;;;10.05;7.35;;;16.40;99.90;;;;;;4975344;28;20118;-66
2022/06/27 05:14:01;;;;;;;8.23;6.88;;;16.40;99.90;;;;;;4970482;28;20049;-66
2022/06/27 05:16:27;;;;;;;8.68;7.22;;;16.40;99.90;;;;;;4972144;28;20039;-66
2022/06/27 05:18:53;;;;;;;9.77;7.47;;;16.50;99.90;;;;;;4974656;28;20214;-66
2022/06/27 05:21:18;;;;;;;9.10;6.97;;;16.50;99.90;;;;;;4975019;28;20639;-68
2022/06/27 05:23:44;;;;;;;8.35;6.75;;;16.50;99.90;;;;;;4957958;28;20034;-68
2022/06/27 05:26:09;;;;;;;9.00;7.07;;;16.60;99.90;;;;;;4955799;28;20093;-68
2022/06/27 05:28:35;;;;;;;8.13;6.60;;;16.60;99.90;;;;;;4975442;28;20068;-69
2022/06/27 05:31:01;;;;;;;7.85;7.05;;;16.60;99.90;;;;;;4974258;28;20111;-68
2022/06/27 05:33:26;;;;;;;8.20;7.30;;;16.70;99.90;;;;;;4957728;28;20091;-68
2022/06/27 05:35:52;;;;;;;9.68;7.32;;;16.80;99.90;;;;;;4972913;28;20097;-68
2022/06/27 05:38:18;;;;;;;9.15;7.45;;;16.80;99.90;;;;;;4974861;28;20038;-68
2022/06/27 05:40:45;;;;;;;8.25;7.18;;;16.90;99.90;;;;;;4959225;28;20047;-68
2022/06/27 05:43:14;;;;;;;9.88;7.43;;;16.90;99.90;;;;;;4975102;28;20093;-69
2022/06/27 05:45:40;;;;;;;8.50;6.78;;;17.00;99.90;;;;;;4972173;28;20503;-68
2022/06/27 05:48:06;;;;;;;8.57;7.60;;;17.10;99.90;;;;;;4974591;28;20089;-69
2022/06/27 05:50:32;;;;;;;8.27;7.10;;;17.20;99.90;;;;;;4957465;28;20054;-68
2022/06/27 05:52:59;;;;;;;8.60;7.05;;;17.30;99.90;;;;;;4975033;28;20039;-68
2022/06/27 05:55:28;;;;;;;9.70;6.65;;;17.30;99.90;;;;;;4972367;28;20039;-68
2022/06/27 05:57:58;;;;;;;8.40;6.90;;;17.30;99.90;;;;;;4973980;28;20071;-68
2022/06/27 06:00:24;;;;;;;8.70;6.43;;;17.40;99.90;;;;;;4959879;28;20043;-67
2022/06/27 06:02:52;;;;;;;7.18;5.97;;;17.40;99.90;;;;;;4974607;28;20039;-67
2022/06/27 06:05:18;;;;;;;7.30;5.72;;;17.40;99.90;;;;;;4956351;28;20494;-66
2022/06/27 06:07:43;;;;;;;8.15;6.20;;;17.40;99.90;;;;;;4973506;28;20117;-66
2022/06/27 06:10:10;;;;;;;7.22;5.40;;;17.40;99.90;;;;;;4979366;28;20533;-67
2022/06/27 06:12:36;;;;;;;7.55;5.93;;;17.40;99.90;;;;;;4971541;28;20503;-67
2022/06/27 06:15:03;;;;;;;6.40;5.75;;;17.40;99.90;;;;;;4973385;28;20129;-68
2022/06/27 06:17:33;;;;;;;7.63;5.95;;;17.40;99.90;;;;;;4963406;28;21259;-66
2022/06/27 06:19:59;;;;;;;7.40;5.70;;;17.40;99.90;;;;;;4959855;28;20096;-66
2022/06/27 06:22:25;;;;;;;7.00;5.60;;;17.40;99.90;;;;;;4981179;28;20038;-65
2022/06/27 06:24:51;;;;;;;8.88;6.10;;;17.40;99.90;;;;;;4972662;28;20406;-66
2022/06/27 06:27:17;;;;;;;6.55;5.15;;;17.50;99.90;;;;;;4976787;28;20042;-66
2022/06/27 06:29:44;;;;;;;7.18;5.28;;;17.50;99.90;;;;;;4982619;28;20129;-66
2022/06/27 06:32:11;;;;;;;5.40;4.85;;;17.50;99.90;;;;;;4992713;28;20042;-66
2022/06/27 06:34:37;;;;;;;5.45;4.95;;;17.50;99.90;;;;;;4980563;28;20114;-66
2022/06/27 06:37:03;;;;;;;9.00;5.10;;;17.50;99.90;;;;;;4980573;28;20538;-66
2022/06/27 06:39:29;;;;;;;7.32;5.35;;;17.50;99.90;;;;;;4986389;28;20522;-66
2022/06/27 06:41:57;;;;;;;5.72;5.13;;;17.50;99.90;;;;;;4991623;28;20034;-66
2022/06/27 06:44:24;;;;;;;6.47;4.65;;;17.50;99.90;;;;;;4969983;28;20100;-66
2022/06/27 06:46:50;;;;;;;5.63;4.82;;;17.60;99.90;;;;;;4972115;28;20055;-66
2022/06/27 06:49:16;;;;;;;5.32;4.82;;;17.70;99.90;;;;;;4959947;28;20035;-66
2022/06/27 06:51:44;;;;;;;8.30;5.05;;;17.70;99.90;;;;;;4972751;28;20054;-65
2022/06/27 06:54:17;;;;;;;6.55;5.55;;;17.80;99.90;;;;;;4971756;28;20408;-66
2022/06/27 06:56:52;;;;;;;6.38;5.55;;;17.80;99.90;;;;;;4980213;28;20055;-66
2022/06/27 06:59:19;;;;;;;5.78;5.10;;;17.80;99.90;;;;;;4970620;28;20129;-66
2022/06/27 07:01:47;;;;;;;6.72;5.20;;;17.70;99.90;;;;;;4976282;28;20038;-66
2022/06/27 07:04:12;;;;;;;7.50;5.07;;;17.70;99.90;;;;;;4967939;28;20034;-66
2022/06/27 07:06:41;;;;;;;5.97;5.15;;;17.70;99.90;;;;;;4991863;28;20050;-65
2022/06/27 07:09:07;;;;;;;6.40;4.95;;;17.60;99.90;;;;;;4979659;28;20053;-66
2022/06/27 07:11:36;;;;;;;5.85;4.97;;;17.50;99.90;;;;;;4979826;28;20403;-66
2022/06/27 07:14:02;;;;;;;7.82;5.50;;;17.40;99.90;;;;;;4986617;28;20031;-66
2022/06/27 07:16:28;;;;;;;5.90;4.75;;;17.40;99.90;;;;;;4971997;28;20097;-66
2022/06/27 07:18:55;;;;;;;6.03;4.72;;;17.40;99.90;;;;;;4969196;28;20101;-66
2022/06/27 07:21:22;;;;;;;5.57;4.85;;;17.30;99.90;;;;;;4970885;28;20487;-66
2022/06/27 07:23:50;;;;;;;5.30;4.70;;;17.30;99.90;;;;;;4990138;28;20169;-66
2022/06/27 07:26:18;;;;;;;5.50;4.90;;;17.30;99.90;;;;;;4974989;28;20044;-66
2022/06/27 07:28:45;;;;;;;6.70;5.25;;;17.30;99.90;;;;;;4981683;28;20574;-66
2022/06/27 07:31:14;;;;;;;5.90;5.00;;;17.40;99.90;;;;;;4972379;28;20046;-66
2022/06/27 07:33:46;;;;;;;5.68;5.00;;;17.50;99.90;;;;;;4969456;28;20039;-66
2022/06/27 07:36:15;;;;;;;6.93;5.65;;;17.50;99.90;;;;;;4970997;28;20478;-66
2022/06/27 07:38:42;;;;;;;7.60;5.85;;;17.60;99.90;;;;;;4980846;28;20100;-66
2022/06/27 07:41:09;;;;;;;7.35;5.95;;;17.70;99.90;;;;;;4984786;28;20105;-66
2022/06/27 07:43:36;;;;;;;7.78;6.30;;;17.70;99.90;;;;;;4986784;28;20053;-66
2022/06/27 07:46:02;;;;;;;7.90;6.43;;;17.80;99.90;;;;;;4975599;28;20047;-66
2022/06/27 07:48:29;;;;;;;11.52;7.20;;;17.80;99.90;;;;;;4974161;28;20089;-66
2022/06/27 07:50:58;;;;;;;8.18;6.50;;;17.90;99.90;;;;;;4981882;28;20050;-66
2022/06/27 07:53:25;;;;;;;7.00;6.30;;;18.00;99.90;;;;;;4985142;28;20038;-66
2022/06/27 07:55:57;;;;;;;7.57;6.78;;;18.20;99.90;;;;;;4972671;28;20079;-66
2022/06/27 07:58:35;;;;;;;7.57;6.63;;;18.40;99.90;;;;;;4977012;28;20038;-66
2022/06/27 08:01:07;;;;;;;7.47;6.32;;;18.50;99.90;;;;;;4976195;28;20069;-66
2022/06/27 08:03:39;;;;;;;6.63;5.93;;;18.70;99.90;;;;;;4986661;28;20038;-66
2022/06/27 08:06:15;;;;;;;8.00;6.30;;;18.80;99.90;;;;;;4990993;28;20577;-67
2022/06/27 08:08:43;;;;;;;11.98;6.60;;;18.90;99.90;;;;;;4982009;28;20051;-66
2022/06/27 08:11:14;;;;;;;7.50;6.50;;;18.90;99.90;;;;;;4973968;28;20080;-67
2022/06/27 08:13:41;;;;;;;7.90;6.93;;;19.00;99.90;;;;;;4975702;28;20437;-66
2022/06/27 08:16:08;;;;;;;7.40;5.93;;;19.20;99.90;;;;;;4977401;28;20089;-66
2022/06/27 08:18:35;;;;;;;8.63;6.57;;;19.30;99.90;;;;;;4980171;28;20050;-67
2022/06/27 08:21:01;;;;;;;6.25;5.50;;;19.40;99.90;;;;;;4978853;28;20340;-66
2022/06/27 08:23:28;;;;;;;7.10;5.75;;;19.40;99.90;;;;;;4975003;28;20349;-66
2022/06/27 08:25:54;;;;;;;6.55;5.85;;;19.50;99.90;;;;;;4984279;28;20035;-66
2022/06/27 08:28:22;;;;;;;7.13;5.68;;;19.50;99.90;;;;;;4984229;28;20038;-66
2022/06/27 08:30:48;;;;;;;6.43;5.60;;;19.50;99.90;;;;;;4976025;28;20042;-66
2022/06/27 08:33:14;;;;;;;6.63;5.38;;;19.50;99.90;;;;;;4984237;28;20038;-66
2022/06/27 08:35:44;;;;;;;6.35;5.20;;;19.50;99.90;;;;;;4980642;28;20042;-66
2022/06/27 08:38:10;;;;;;;7.60;5.35;;;19.50;99.90;;;;;;4988311;28;20118;-66
2022/06/27 08:40:36;;;;;;;5.65;5.05;;;19.30;99.90;;;;;;4982778;28;20133;-66
2022/06/27 08:43:02;;;;;;;7.60;5.50;;;19.30;99.90;;;;;;4986439;28;20113;-66
2022/06/27 08:45:29;;;;;;;6.95;5.50;;;19.30;99.90;;;;;;4964773;28;20070;-66
2022/06/27 08:48:06;;;;;;;6.55;5.07;;;19.30;99.90;;;;;;4975629;28;20088;-66
2022/06/27 08:50:34;;;;;;;5.63;4.70;;;19.40;99.90;;;;;;4976382;28;20042;-65
2022/06/27 08:53:01;;;;;;;5.60;4.38;;;19.50;99.90;;;;;;4982522;28;20073;-66
2022/06/27 08:55:27;;;;;;;5.60;4.03;;;19.50;99.90;;;;;;4988866;28;20130;-67
2022/06/27 08:57:53;;;;;;;5.28;4.70;;;19.60;99.90;;;;;;4975847;28;20114;-66
2022/06/27 09:00:20;;;;;;;5.97;4.60;;;19.70;99.90;;;;;;4958062;28;20113;-66
2022/06/27 09:02:45;;;;;;;5.20;4.35;;;19.70;99.90;;;;;;4975773;28;20581;-66
2022/06/27 09:05:26;;;;;;;7.00;4.60;;;19.80;99.90;;;;;;4975036;28;20038;-66
2022/06/27 09:07:53;;;;;;;7.05;4.07;;;20.00;99.90;;;;;;4978192;28;20039;-67
2022/06/27 09:10:25;;;;;;;6.38;4.22;;;19.90;99.90;;;;;;4988330;28;20054;-67
2022/06/27 09:12:59;;;;;;;5.50;4.20;;;20.00;99.90;;;;;;4973570;28;20078;-67
2022/06/27 09:15:46;;;;;;;6.28;4.10;;;20.00;99.90;;;;;;4958385;28;20058;-66
2022/06/27 09:18:15;;;;;;;5.47;4.65;;;20.00;99.90;;;;;;4971079;28;20050;-67
2022/06/27 09:21:03;;;;;;;7.10;4.95;;;19.70;99.90;;;;;;4973304;28;20487;-66
2022/06/27 09:23:47;;;;;;;5.97;5.28;;;19.60;99.90;;;;;;4983228;28;20043;-66
2022/06/27 09:26:21;;;;;;;5.53;5.03;;;19.40;99.90;;;;;;4988702;28;20042;-67
2022/06/27 09:28:50;;;;;;;5.80;4.80;;;19.20;99.90;;;;;;4977058;28;20056;-66
2022/06/27 09:31:28;;;;;;;7.38;4.35;;;19.20;99.90;;;;;;4969287;28;20038;-67
2022/06/27 09:34:10;;;;;;;5.97;5.20;;;19.20;99.90;;;;;;4975009;28;20086;-66
2022/06/27 09:36:42;;;;;;;5.90;5.18;;;19.30;99.90;;;;;;4982946;28;20039;-67
2022/06/27 09:39:35;;;;;;;7.05;4.55;;;19.50;99.90;;;;;;4983515;28;20191;-67
2022/06/27 09:42:07;;;;;;;6.22;5.28;;;19.50;99.90;;;;;;4971473;28;20522;-67
2022/06/27 09:44:38;;;;;;;6.00;5.40;;;19.40;99.90;;;;;;4956958;28;20082;-67
2022/06/27 09:47:04;;;;;;;;;;;19.40;99.90;;;;;;4994448;28;20058;-66
2022/06/27 09:49:41;;;;;;;6.68;5.60;;;19.30;99.90;;;;;;4984784;28;20297;-67
2022/06/27 09:52:13;;;;;;;5.70;5.10;;;19.50;99.90;;;;;;4981489;28;20026;-65
2022/06/27 09:54:41;;;;;;;6.50;4.90;;;19.50;99.90;;;;;;4957035;28;20042;-67
2022/06/27 09:57:08;;;;;;;5.38;4.88;;;19.50;99.90;;;;;;4977837;28;20034;-67
2022/06/27 09:59:36;;;;;;;7.53;5.15;;;19.60;99.90;;;;;;4993781;28;20053;-67
2022/06/27 10:02:02;;;;;;;5.72;4.95;;;19.80;99.90;;;;;;4976073;28;20062;-67
2022/06/27 10:04:29;;;;;;;5.72;5.10;;;19.90;99.90;;;;;;4982932;28;20070;-66
2022/06/27 10:07:01;;;;;;;6.80;4.85;;;19.90;99.90;;;;;;4981312;28;20112;-67
2022/06/27 10:09:29;;;;;;;6.00;5.35;;;20.10;99.90;;;;;;4976601;28;20041;-66
2022/06/27 10:12:25;;;;;;;5.22;4.40;;;20.10;99.90;;;;;;4980233;28;20034;-66
2022/06/27 10:15:14;;;;;;;5.47;4.60;;;20.00;99.90;;;;;;4978438;28;20034;-66
2022/06/27 10:17:48;;;;;;;5.15;4.65;;;20.00;99.90;;;;;;4974416;28;20050;-67
2022/06/27 10:20:42;;;;;;;5.43;4.85;;;19.90;99.90;;;;;;4980251;28;20588;-67
2022/06/27 10:23:18;;;;;;;7.72;4.38;;;19.90;99.90;;;;;;4972044;28;20055;-66
2022/06/27 10:25:48;;;;;;;6.18;4.40;;;19.90;99.90;;;;;;4973764;28;20482;-66
2022/06/27 10:28:18;;;;;;;7.32;4.72;;;19.90;99.90;;;;;;4978856;28;20081;-67
2022/06/27 10:30:51;;;;;;;5.85;4.20;;;19.90;99.90;;;;;;4976954;28;20110;-66
2022/06/27 10:33:23;;;;;;;5.88;4.90;;;20.00;99.90;;;;;;4981623;28;20065;-66
2022/06/27 10:36:10;;;;;;;6.45;4.95;;;20.00;99.90;;;;;;4982685;28;20037;-66
2022/06/27 10:38:39;;;;;;;7.53;4.85;;;20.20;99.90;;;;;;4973732;28;20126;-66
2022/06/27 10:41:07;;;;;;;9.50;5.32;;;20.30;99.90;;;;;;4978594;28;20455;-66
2022/06/27 10:43:50;;;;;;;6.07;5.30;;;20.50;99.90;;;;;;4981241;28;20383;-66
2022/06/27 10:46:16;;;;;;;6.43;5.25;;;20.70;99.90;;;;;;4982117;28;20046;-67
2022/06/27 10:48:43;;;;;;;5.68;4.80;;;20.80;99.90;;;;;;4979168;28;20043;-67
2022/06/27 10:51:22;;;;;;;5.53;4.97;;;20.80;99.90;;;;;;4990851;28;20038;-67
2022/06/27 10:53:49;;;;;;;5.63;4.40;;;20.90;99.90;;;;;;4983456;28;20045;-67
2022/06/27 10:56:41;;;;;;;5.78;4.95;;;20.90;99.90;;;;;;4973242;28;20526;-67
2022/06/27 10:59:28;;;;;;;5.60;4.35;;;21.00;99.90;;;;;;4982559;28;20647;-67
2022/06/27 11:01:53;;;;;;;5.90;5.28;;;21.00;99.90;;;;;;4972177;28;20057;-67
2022/06/27 11:04:29;;;;;;;5.90;5.30;;;21.00;99.90;;;;;;4982154;28;20436;-67
2022/06/27 11:06:59;;;;;;;6.18;4.90;;;21.10;99.90;;;;;;4972178;28;20043;-67
2022/06/27 11:09:44;;;;;;;6.50;4.47;;;21.20;99.90;;;;;;4974454;28;20042;-67
2022/06/27 11:12:18;;;;;;;6.07;5.03;;;21.30;99.90;;;;;;4972104;28;20118;-67
2022/06/27 11:14:51;;;;;;;5.40;4.63;;;21.20;99.90;;;;;;4973750;28;20042;-67
2022/06/27 11:17:30;;;;;;;7.90;5.32;;;21.10;99.90;;;;;;4972407;28;20047;-67
2022/06/27 11:20:15;;;;;;;5.43;4.75;;;21.00;99.90;;;;;;4980289;28;20038;-67
2022/06/27 11:22:43;;;;;;;6.72;4.60;;;21.00;99.90;;;;;;4989194;28;20502;-67
2022/06/27 11:25:10;;;;;;;4.90;4.00;;;20.90;99.90;;;;;;4974380;28;20061;-67
2022/06/27 11:27:58;;;;;;;5.72;4.13;;;21.00;99.90;;;;;;4979842;28;20046;-67
2022/06/27 11:33:20;;;;;;;5.25;4.28;;;21.00;99.90;;;;;;4972064;28;20043;-67
2022/06/27 11:35:47;;;;;;;5.32;4.70;;;21.00;99.90;;;;;;4969162;28;20042;-67
2022/06/27 11:38:21;;;;;;;5.13;4.63;;;21.00;99.90;;;;;;4959873;28;20401;-67
2022/06/27 11:40:59;;;;;;;6.35;4.68;;;21.00;99.90;;;;;;4989124;28;20030;-66
2022/06/27 11:43:58;;;;;;;5.93;4.90;;;20.90;99.90;;;;;;4983689;28;20062;-68
2022/06/27 11:46:28;;;;;;;5.22;4.72;;;20.70;99.90;;;;;;4977362;28;20050;-66
2022/06/27 11:49:04;;;;;;;5.35;4.70;;;20.70;99.90;;;;;;4981960;28;20037;-67
2022/06/27 11:51:33;;;;;;;5.65;4.40;;;20.80;99.90;;;;;;4982866;28;20034;-66
2022/06/27 11:54:03;;;;;;;6.65;4.40;;;20.80;99.90;;;;;;4985205;28;20035;-67
2022/06/27 11:56:31;;;;;;;6.75;4.70;;;20.80;99.90;;;;;;4979071;28;20130;-67
2022/06/27 11:58:58;;;;;;;4.97;4.47;;;20.80;99.90;;;;;;4970192;28;20051;-66
2022/06/27 12:01:25;;;;;;;6.45;5.18;;;20.90;99.90;;;;;;4983068;28;20113;-66
2022/06/27 12:04:10;;;;;;;5.68;5.07;;;20.90;99.90;;;;;;4982820;28;20081;-67
2022/06/27 12:06:44;;;;;;;6.35;5.45;;;21.00;99.90;;;;;;4972265;28;20077;-67
2022/06/27 12:09:10;;;;;;;6.28;5.25;;;21.10;99.90;;;;;;4971211;28;20039;-67
2022/06/27 12:11:36;;;;;;;9.60;4.90;;;21.10;99.90;;;;;;5042860;23;20521;-68
2022/06/27 12:14:02;;;;;;;10.63;5.65;;;21.20;99.90;;;;;;4972687;28;20121;-68
2022/06/27 12:16:28;;;;;;;7.07;5.30;;;21.30;99.90;;;;;;4939942;28;20189;-68
2022/06/27 12:18:54;;;;;;;6.15;5.55;;;21.30;99.90;;;;;;4963447;28;20030;-68
2022/06/27 12:21:22;;;;;;;6.55;5.53;;;21.40;99.90;;;;;;4961803;28;20101;-68
2022/06/27 12:23:48;;;;;;;5.88;5.28;;;21.40;99.90;;;;;;4956218;28;20384;-68
2022/06/27 12:26:14;;;;;;;6.28;5.65;;;21.40;99.90;;;;;;4947321;28;20487;-68
2022/06/27 12:28:43;;;;;;;7.75;5.47;;;21.50;99.90;;;;;;4951358;28;20050;-68
2022/06/27 12:31:08;;;;;;;6.60;4.75;;;21.50;99.90;;;;;;4956295;28;20042;-68
2022/06/27 12:33:34;;;;;;;6.00;5.40;;;21.40;99.90;;;;;;4970683;28;20051;-68
2022/06/27 12:36:01;;;;;;;7.57;5.47;;;21.50;99.90;;;;;;4939039;28;20043;-68
2022/06/27 12:42:00;;;;;;;7.30;6.15;;;21.30;99.90;;;;;;4952112;28;20046;-70
2022/06/27 12:44:27;;;;;;;8.85;6.20;;;21.30;99.90;;;;;;4925476;28;20043;-71
2022/06/27 12:46:53;;;;;;;7.38;6.10;;;21.20;99.90;;;;;;4942769;29;20474;-71
2022/06/27 12:49:18;;;;;;;7.97;6.82;;;21.00;99.90;;;;;;4951218;28;20119;-71
2022/06/27 12:51:44;;;;;;;7.00;6.30;;;21.00;99.90;;;;;;4935631;28;20115;-71
2022/06/27 13:01:18;;;;;;;7.53;6.28;;;20.90;99.90;;;;;;5029670;23;19929;-69
2022/06/27 13:03:44;;;;;;;8.07;6.43;;;20.90;99.90;;;;;;4973252;28;20035;-73
2022/06/27 13:06:11;;;;;;;12.43;6.60;;;20.90;99.90;;;;;;4957122;28;20089;-73